Time;durP1;ratioP1;P1;durP2;ratioP2;P2;SDS_P1;SDS_P2;PMS_P1;PMS_P2;Temp;Humidity;BMP_temperature;BMP_pressure;BME280_temperature;BME280_humidity;BME280_pressure;Samples;Min_cycle;Max_cycle;Signal;HPM_P1;HPM_P2
2023/09/04 00:01:46;;;;;;;4.80;3.40;;;;;;;15.37;79.48;101083.61;131223;1255;106546;-76
2023/09/04 00:04:52;;;;;;;4.30;3.30;;;;;;;15.33;79.04;101086.35;131218;1253;106738;-76
2023/09/04 00:07:58;;;;;;;4.10;3.30;;;;;;;15.33;78.88;101091.26;131132;1253;108516;-78
2023/09/04 00:11:03;;;;;;;6.30;3.70;;;;;;;15.27;79.19;101092.48;131200;1250;107285;-76
2023/09/04 00:14:09;;;;;;;5.20;3.00;;;;;;;15.22;80.08;101091.13;131181;1254;108091;-76
2023/09/04 00:17:14;;;;;;;4.10;3.00;;;;;;;15.18;80.45;101096.89;131141;1252;108243;-75
2023/09/04 00:20:20;;;;;;;4.90;3.40;;;;;;;15.18;80.33;101106.56;131080;1252;107648;-76
2023/09/04 00:23:26;;;;;;;5.00;3.50;;;;;;;15.18;80.78;101107.44;131194;1252;108638;-76
2023/09/04 00:26:31;;;;;;;4.70;3.20;;;;;;;15.15;80.53;101107.30;131167;1252;106943;-75
2023/09/04 00:29:37;;;;;;;5.70;3.40;;;;;;;15.11;80.52;101108.59;131148;1263;107586;-75
2023/09/04 00:32:43;;;;;;;6.20;3.10;;;;;;;15.08;80.91;101111.94;131158;1252;107478;-77
2023/09/04 00:35:49;;;;;;;3.40;3.10;;;;;;;15.06;81.34;101108.20;131179;1253;106470;-76
2023/09/04 00:38:55;;;;;;;4.60;3.20;;;;;;;15.03;81.04;101102.42;131099;1248;107409;-76
2023/09/04 00:42:00;;;;;;;4.80;3.00;;;;;;;15.00;81.94;101099.34;131161;1254;106752;-76
2023/09/04 00:45:11;;;;;;;4.70;3.20;;;;;;;14.98;81.11;101101.41;131144;1248;108274;-76
2023/09/04 00:48:19;;;;;;;5.50;3.30;;;;;;;14.94;80.94;101100.70;131255;1253;106972;-76
2023/09/04 00:51:25;;;;;;;4.50;2.90;;;;;;;14.88;81.07;101101.29;131080;1254;106499;-76
2023/09/04 00:54:31;;;;;;;5.00;3.00;;;;;;;14.82;81.69;101102.81;130935;1248;250095;-78
2023/09/04 00:57:39;;;;;;;4.90;3.20;;;;;;;14.77;82.18;101106.62;131128;1252;107004;-77
2023/09/04 01:00:45;;;;;;;5.90;3.60;;;;;;;14.71;81.72;101111.82;131155;1254;106656;-75
2023/09/04 01:03:52;;;;;;;4.30;3.50;;;;;;;14.67;81.58;101111.76;131108;1255;106085;-75
2023/09/04 01:06:58;;;;;;;4.40;2.90;;;;;;;14.61;81.76;101110.02;131030;1248;107648;-75
2023/09/04 01:10:04;;;;;;;4.20;2.70;;;;;;;14.55;81.95;101112.02;131061;1261;108640;-75
2023/09/04 01:13:17;;;;;;;3.00;2.70;;;;;;;14.52;81.56;101110.59;131362;1253;107670;-75
2023/09/04 01:16:24;;;;;;;4.20;3.30;;;;;;;14.49;81.56;101104.96;131154;1250;107072;-75
2023/09/04 01:19:30;;;;;;;6.50;3.20;;;;;;;14.47;81.50;101112.48;131198;1250;107482;-75
2023/09/04 01:22:36;;;;;;;4.60;3.10;;;;;;;14.44;81.91;101111.89;131084;1249;108698;-76
2023/09/04 01:25:50;;;;;;;4.40;3.00;;;;;;;14.42;81.24;101110.73;131076;1247;107724;-76
2023/09/04 01:29:06;;;;;;;4.90;2.90;;;;;;;14.40;81.48;101109.52;131048;1263;106615;-76
2023/09/04 01:32:17;;;;;;;4.40;2.90;;;;;;;14.36;81.78;101111.53;131056;1252;107869;-76
2023/09/04 01:35:25;;;;;;;4.50;2.90;;;;;;;14.31;81.51;101112.91;131124;1252;107757;-75
2023/09/04 01:38:31;;;;;;;6.30;3.10;;;;;;;14.28;81.83;101110.47;131022;1250;108568;-76
2023/09/04 01:41:39;;;;;;;4.80;3.00;;;;;;;14.24;81.96;101107.31;131169;1252;106870;-75
2023/09/04 01:44:45;;;;;;;4.40;3.30;;;;;;;14.19;81.73;101115.90;131093;1254;106481;-75
2023/09/04 01:47:50;;;;;;;4.70;3.10;;;;;;;14.11;81.83;101115.53;131114;1252;106580;-75
2023/09/04 01:50:56;;;;;;;5.10;2.90;;;;;;;14.07;81.89;101115.97;131142;1252;107256;-76
2023/09/04 01:54:02;;;;;;;5.30;3.30;;;;;;;14.03;81.90;101118.91;131147;1250;106802;-76
2023/09/04 01:57:08;;;;;;;5.40;3.50;;;;;;;13.98;82.70;101121.77;131188;1253;106906;-76
2023/09/04 02:00:15;;;;;;;3.50;2.80;;;;;;;13.91;83.66;101129.41;131256;1249;107567;-75
2023/09/04 02:03:23;;;;;;;4.30;3.20;;;;;;;13.85;83.36;101140.23;131136;1248;108787;-77
2023/09/04 02:06:30;;;;;;;4.40;2.90;;;;;;;13.78;82.94;101144.88;131103;1253;108522;-76
2023/09/04 02:09:36;;;;;;;6.10;2.80;;;;;;;13.78;83.03;101147.08;131120;1252;106339;-76
2023/09/04 02:12:41;;;;;;;7.40;3.30;;;;;;;13.80;83.60;101147.40;131070;1252;106897;-76
2023/09/04 02:15:47;;;;;;;5.80;3.30;;;;;;;13.81;83.51;101151.00;130966;1252;107813;-77
2023/09/04 02:18:55;;;;;;;6.00;3.40;;;;;;;13.84;83.60;101151.82;131093;1250;106538;-75
2023/09/04 02:22:00;;;;;;;6.70;3.40;;;;;;;13.85;83.50;101160.10;131146;1252;108334;-76
2023/09/04 02:25:07;;;;;;;5.30;3.10;;;;;;;13.83;83.58;101156.70;131102;1250;107896;-76
2023/09/04 02:28:12;;;;;;;4.50;2.80;;;;;;;13.81;83.73;101156.95;131087;1251;108507;-75
2023/09/04 02:31:18;;;;;;;4.20;3.10;;;;;;;13.79;83.95;101161.98;131281;1251;107778;-75
2023/09/04 02:34:23;;;;;;;4.90;3.20;;;;;;;13.75;83.82;101166.05;131406;1250;107021;-75
2023/09/04 02:37:29;;;;;;;4.40;3.00;;;;;;;13.74;83.43;101170.96;131388;1252;108340;-75
2023/09/04 02:40:35;;;;;;;6.60;3.30;;;;;;;13.72;83.54;101163.45;131401;1252;108480;-75
2023/09/04 02:43:42;;;;;;;4.50;3.20;;;;;;;13.69;83.65;101160.61;131056;1252;107647;-77
2023/09/04 02:46:47;;;;;;;4.40;3.10;;;;;;;13.66;83.60;101154.95;131173;1249;108654;-75
2023/09/04 02:49:54;;;;;;;4.10;3.10;;;;;;;13.66;83.71;101157.29;131141;1252;107597;-76
2023/09/04 02:52:59;;;;;;;5.10;3.00;;;;;;;13.66;83.81;101156.22;131085;1249;106825;-76
2023/09/04 02:56:05;;;;;;;4.50;3.20;;;;;;;13.71;83.62;101151.11;131152;1248;108586;-76
2023/09/04 02:59:11;;;;;;;3.80;2.90;;;;;;;13.75;83.33;101142.48;131082;1252;106687;-77
2023/09/04 03:02:16;;;;;;;4.20;3.20;;;;;;;13.81;83.72;101143.14;131080;1252;107715;-76
2023/09/04 03:05:22;;;;;;;5.30;3.30;;;;;;;13.78;84.13;101159.73;131113;1249;106061;-76
2023/09/04 03:08:27;;;;;;;4.80;3.20;;;;;;;13.72;84.23;101167.36;131142;1252;106997;-76
2023/09/04 03:11:33;;;;;;;5.00;3.30;;;;;;;13.68;84.28;101174.62;131141;1254;105857;-76
2023/09/04 03:14:39;;;;;;;5.30;3.30;;;;;;;13.66;84.37;101177.00;131116;1260;106763;-76
2023/09/04 03:17:45;;;;;;;4.20;3.20;;;;;;;13.61;84.39;101171.73;131034;1248;107703;-76
2023/09/04 03:20:51;;;;;;;5.30;3.30;;;;;;;13.61;84.22;101172.30;131129;1252;107001;-76
2023/09/04 03:23:56;;;;;;;4.50;2.90;;;;;;;13.60;84.25;101171.87;131104;1252;107404;-76
2023/09/04 03:27:02;;;;;;;5.30;3.30;;;;;;;13.60;84.21;101172.91;131155;1252;107666;-76
2023/09/04 03:30:11;;;;;;;7.20;3.90;;;;;;;13.59;84.52;101173.33;131105;1253;106253;-76
2023/09/04 03:33:16;;;;;;;5.70;4.00;;;;;;;13.58;84.08;101177.08;131137;1252;106588;-76
2023/09/04 03:36:23;;;;;;;4.60;3.80;;;;;;;13.58;84.36;101183.51;131343;1254;106455;-76
2023/09/04 03:39:28;;;;;;;6.40;3.90;;;;;;;13.53;84.46;101194.66;131368;1250;108503;-76
2023/09/04 03:42:34;;;;;;;4.20;3.00;;;;;;;13.49;84.51;101204.55;131303;1248;107010;-76
2023/09/04 03:45:39;;;;;;;6.10;3.20;;;;;;;13.45;84.79;101197.41;131315;1250;107543;-75
2023/09/04 03:48:45;;;;;;;4.40;3.50;;;;;;;13.45;84.67;101185.45;131301;1259;107401;-76
2023/09/04 03:51:51;;;;;;;6.30;4.00;;;;;;;13.49;84.48;101181.89;131262;1250;108619;-76
2023/09/04 03:54:57;;;;;;;6.10;4.10;;;;;;;13.52;84.56;101190.48;131297;1254;107813;-75
2023/09/04 03:58:03;;;;;;;8.20;4.30;;;;;;;13.52;84.76;101207.67;131426;1251;106553;-75
2023/09/04 04:01:09;;;;;;;7.50;3.90;;;;;;;13.49;84.77;101222.20;131471;1254;106262;-75
2023/09/04 04:04:14;;;;;;;5.70;3.70;;;;;;;13.51;84.92;101229.52;131205;1252;107782;-74
2023/09/04 04:07:20;;;;;;;6.40;3.80;;;;;;;13.56;85.12;101233.88;131089;1252;106765;-74
2023/09/04 04:10:25;;;;;;;8.00;3.70;;;;;;;13.62;85.40;101232.46;131119;1249;105740;-74
2023/09/04 04:13:31;;;;;;;6.10;4.30;;;;;;;13.66;85.54;101228.44;131119;1252;106665;-75
2023/09/04 04:16:36;;;;;;;6.30;3.80;;;;;;;13.69;85.29;101230.63;131273;1252;106798;-78
2023/09/04 04:19:42;;;;;;;8.00;3.40;;;;;;;13.76;85.34;101233.59;131146;1248;108096;-76
2023/09/04 04:22:48;;;;;;;5.00;3.70;;;;;;;13.84;85.23;101232.44;131113;1251;106402;-75
2023/09/04 04:25:54;;;;;;;6.40;3.60;;;;;;;13.96;85.02;101225.20;131094;1250;106482;-76
2023/09/04 04:28:59;;;;;;;4.60;3.40;;;;;;;14.07;85.28;101224.25;131144;1254;106827;-76
2023/09/04 04:32:06;;;;;;;6.10;3.70;;;;;;;14.14;85.39;101223.56;131088;1249;106584;-75
2023/09/04 04:35:11;;;;;;;6.70;3.50;;;;;;;14.21;84.93;101220.96;131479;1252;108349;-76
2023/09/04 04:38:17;;;;;;;5.30;3.50;;;;;;;14.27;85.17;101215.80;131145;1252;106708;-75
2023/09/04 04:41:24;;;;;;;6.00;3.20;;;;;;;14.36;84.88;101218.66;131149;1248;106275;-75
2023/09/04 04:44:31;;;;;;;5.00;3.20;;;;;;;14.51;84.78;101216.27;131164;1251;108704;-75
2023/09/04 04:47:38;;;;;;;6.70;3.60;;;;;;;14.61;84.71;101221.75;131228;1250;106793;-78
2023/09/04 04:50:44;;;;;;;5.00;3.50;;;;;;;14.67;84.67;101222.98;131092;1251;106677;-78
2023/09/04 04:53:50;;;;;;;6.70;3.70;;;;;;;14.78;84.72;101214.30;131266;1254;106966;-77
2023/09/04 04:56:55;;;;;;;4.50;3.30;;;;;;;14.89;84.36;101216.18;131120;1252;107643;-77
2023/09/04 05:00:01;;;;;;;3.90;3.30;;;;;;;14.98;84.48;101216.05;131125;1252;107685;-77
2023/09/04 05:03:08;;;;;;;5.40;3.30;;;;;;;15.18;84.55;101217.88;131314;1252;105875;-76
2023/09/04 05:06:15;;;;;;;5.00;3.30;;;;;;;15.35;84.22;101205.22;131169;1252;106240;-77
2023/09/04 05:09:21;;;;;;;5.00;3.00;;;;;;;15.55;84.05;101199.71;131214;1253;108789;-76
2023/09/04 05:12:27;;;;;;;5.20;3.60;;;;;;;15.77;84.06;101200.23;131233;1250;108111;-76
2023/09/04 05:15:33;;;;;;;5.00;3.20;;;;;;;16.03;83.47;101213.60;131418;1252;107724;-76
2023/09/04 05:18:39;;;;;;;6.20;3.80;;;;;;;16.06;82.31;101221.86;131255;1253;106870;-77
2023/09/04 05:21:45;;;;;;;4.40;3.20;;;;;;;15.96;82.93;101220.25;131347;1252;108437;-75
2023/09/04 05:24:51;;;;;;;5.60;3.00;;;;;;;15.98;83.07;101219.35;131230;1250;106602;-77
2023/09/04 05:27:56;;;;;;;5.30;3.30;;;;;;;15.98;82.70;101225.77;131355;1250;108409;-75
2023/09/04 05:31:05;;;;;;;4.70;3.40;;;;;;;15.92;82.89;101237.44;131127;1252;108237;-78
2023/09/04 05:34:11;;;;;;;4.50;3.60;;;;;;;15.84;83.12;101246.88;131741;1252;107807;-78
2023/09/04 05:37:16;;;;;;;7.60;3.20;;;;;;;15.77;83.25;101238.98;131586;1249;106932;-77
2023/09/04 05:40:23;;;;;;;5.00;3.20;;;;;;;15.80;83.28;101239.09;131431;1254;106650;-77
2023/09/04 05:43:28;;;;;;;5.10;3.20;;;;;;;15.85;82.96;101240.14;131786;1252;106329;-79
2023/09/04 05:46:34;;;;;;;4.00;3.20;;;;;;;15.88;82.69;101235.89;131256;1252;108533;-81
2023/09/04 05:49:40;;;;;;;4.60;3.30;;;;;;;15.88;82.85;101232.74;131214;1249;107010;-83
2023/09/04 05:52:46;;;;;;;4.50;3.30;;;;;;;15.93;82.80;101238.09;131262;1252;107828;-81
2023/09/04 05:56:06;;;;;;;6.30;3.50;;;;;;;15.83;82.60;101250.89;131278;1253;107660;-80
2023/09/04 05:59:12;;;;;;;6.00;2.90;;;;;;;15.79;82.96;101261.55;131169;1252;106930;-80
2023/09/04 06:02:18;;;;;;;4.80;3.30;;;;;;;15.91;82.96;101278.41;131244;1252;107132;-79
2023/09/04 06:05:24;;;;;;;5.70;3.50;;;;;;;16.05;82.93;101286.84;131305;1252;106730;-78
2023/09/04 06:08:31;;;;;;;6.10;3.40;;;;;;;16.15;82.30;101283.83;131108;1250;106238;-79
2023/09/04 06:11:37;;;;;;;4.90;3.40;;;;;;;16.17;82.20;101283.91;131248;1252;106742;-80
2023/09/04 06:14:42;;;;;;;6.30;3.40;;;;;;;16.26;82.46;101288.50;131189;1250;109636;-78
2023/09/04 06:17:48;;;;;;;5.90;3.80;;;;;;;16.33;81.93;101286.88;131853;1250;108676;-79
2023/09/04 06:20:54;;;;;;;6.50;3.20;;;;;;;16.28;81.58;101284.20;132615;1251;106705;-79
2023/09/04 06:24:00;;;;;;;5.50;3.50;;;;;;;16.27;82.42;101289.46;131367;1252;108736;-78
2023/09/04 06:27:06;;;;;;;5.20;3.40;;;;;;;16.38;82.19;101283.24;131762;1249;107555;-79
2023/09/04 06:30:13;;;;;;;6.40;3.80;;;;;;;16.49;81.65;101289.42;131942;1252;107531;-78
2023/09/04 06:33:19;;;;;;;4.50;3.50;;;;;;;16.55;81.60;101298.83;132560;1252;107797;-78
2023/09/04 06:36:24;;;;;;;5.70;3.70;;;;;;;16.71;81.82;101308.14;131292;1252;108377;-78
2023/09/04 06:39:30;;;;;;;5.70;3.70;;;;;;;16.83;80.94;101308.77;131145;1252;106512;-79
2023/09/04 06:42:35;;;;;;;6.10;3.30;;;;;;;16.92;81.03;101306.55;131072;1252;107758;-78
2023/09/04 06:45:45;;;;;;;8.20;3.80;;;;;;;17.06;80.77;101309.85;131178;1252;107910;-78
2023/09/04 06:48:50;;;;;;;4.50;3.20;;;;;;;17.29;80.65;101317.70;131191;1249;107264;-79
2023/09/04 06:51:56;;;;;;;4.50;3.40;;;;;;;17.51;80.19;101318.73;131183;1253;107389;-79
2023/09/04 06:55:01;;;;;;;4.70;3.50;;;;;;;17.66;79.40;101321.00;131084;1253;107169;-79
2023/09/04 06:58:07;;;;;;;6.10;3.50;;;;;;;17.77;80.25;101323.50;131224;1250;106766;-79
2023/09/04 07:01:13;;;;;;;6.00;3.90;;;;;;;17.99;79.69;101321.92;131169;1254;106932;-79
2023/09/04 07:04:19;;;;;;;5.50;3.40;;;;;;;18.12;78.03;101326.65;131201;1253;107804;-79
2023/09/04 07:07:25;;;;;;;4.30;3.10;;;;;;;18.25;76.82;101330.49;131120;1251;107815;-79
2023/09/04 07:10:31;;;;;;;5.10;3.00;;;;;;;18.33;77.73;101328.85;131143;1250;107036;-79
2023/09/04 07:13:36;;;;;;;4.80;2.90;;;;;;;18.45;78.03;101333.74;131162;1252;106496;-79
2023/09/04 07:16:42;;;;;;;5.30;2.90;;;;;;;18.52;76.95;101340.70;131079;1252;107014;-80
2023/09/04 07:19:47;;;;;;;4.40;2.90;;;;;;;18.41;75.31;101337.80;131158;1255;108646;-79
2023/09/04 07:22:53;;;;;;;3.90;2.50;;;;;;;18.34;77.16;101339.91;131083;1253;107684;-79
2023/09/04 07:25:58;;;;;;;5.30;2.80;;;;;;;18.38;76.81;101338.15;131168;1250;108454;-79
2023/09/04 07:29:04;;;;;;;4.40;2.70;;;;;;;18.32;76.28;101344.98;131088;1250;106738;-78
2023/09/04 07:32:09;;;;;;;5.30;2.80;;;;;;;18.27;75.78;101349.32;131102;1252;108645;-79
2023/09/04 07:35:15;;;;;;;4.10;2.50;;;;;;;18.37;76.58;101345.50;131206;1252;107864;-79
2023/09/04 07:38:20;;;;;;;7.40;2.60;;;;;;;18.55;75.90;101352.03;131207;1252;107664;-79
2023/09/04 07:41:26;;;;;;;5.60;2.50;;;;;;;18.46;75.10;101353.45;131143;1252;108307;-78
2023/09/04 07:44:32;;;;;;;5.00;2.70;;;;;;;18.28;74.53;101352.27;131057;1250;107738;-79
2023/09/04 07:47:37;;;;;;;4.70;2.50;;;;;;;18.13;75.66;101358.69;131078;1252;108363;-79
2023/09/04 07:50:43;;;;;;;7.30;2.70;;;;;;;18.02;75.72;101365.32;131153;1257;107390;-79
2023/09/04 07:53:49;;;;;;;5.20;2.70;;;;;;;17.99;76.27;101370.15;131228;1252;107727;-78
2023/09/04 07:56:55;;;;;;;5.20;2.70;;;;;;;18.01;76.29;101367.95;131217;1253;108819;-78
2023/09/04 08:00:01;;;;;;;5.10;3.00;;;;;;;18.14;75.92;101363.67;131138;1250;106750;-78
2023/09/04 08:03:06;;;;;;;4.90;2.90;;;;;;;18.17;74.89;101350.87;131117;1254;108595;-80
2023/09/04 08:06:12;;;;;;;5.30;2.90;;;;;;;18.27;75.69;101339.61;131214;1250;106932;-79
2023/09/04 08:09:18;;;;;;;5.00;2.80;;;;;;;18.58;75.84;101336.01;131091;1250;106487;-79
2023/09/04 08:12:23;;;;;;;4.30;2.70;;;;;;;18.86;75.24;101330.91;131110;1250;106953;-79
2023/09/04 08:15:29;;;;;;;4.30;2.50;;;;;;;19.01;74.30;101328.27;131217;1252;107615;-79
2023/09/04 08:18:35;;;;;;;3.90;2.60;;;;;;;19.28;75.47;101326.73;131185;1250;107282;-79
2023/09/04 08:21:40;;;;;;;4.60;2.60;;;;;;;19.45;73.10;101327.16;131126;1253;107696;-79
2023/09/04 08:24:48;;;;;;;4.00;2.50;;;;;;;19.61;73.87;101333.06;131198;1250;108783;-78
2023/09/04 08:27:54;;;;;;;4.90;2.50;;;;;;;19.61;72.25;101326.95;131069;1263;107774;-79
2023/09/04 08:30:59;;;;;;;5.40;2.80;;;;;;;19.47;72.06;101323.95;131102;1252;107676;-79
2023/09/04 08:34:05;;;;;;;4.80;3.00;;;;;;;19.23;72.32;101326.45;131072;1252;107514;-79
2023/09/04 08:37:11;;;;;;;6.40;3.20;;;;;;;19.00;72.62;101335.07;131069;1252;107606;-79
2023/09/04 08:40:16;;;;;;;6.30;3.60;;;;;;;18.82;72.95;101338.15;131192;1252;107617;-79
2023/09/04 08:43:24;;;;;;;5.60;2.80;;;;;;;18.79;73.80;101335.02;131007;1252;107060;-79
2023/09/04 08:46:31;;;;;;;5.60;3.00;;;;;;;18.79;73.00;101342.40;131121;1253;107407;-79
2023/09/04 08:49:38;;;;;;;5.90;2.90;;;;;;;18.95;73.88;101344.59;131253;1252;108077;-79
2023/09/04 08:52:44;;;;;;;4.70;2.80;;;;;;;19.14;73.13;101346.04;131017;1252;106630;-79
2023/09/04 08:55:51;;;;;;;4.70;2.50;;;;;;;19.27;72.40;101346.33;131215;1250;106389;-79
2023/09/04 08:58:56;;;;;;;7.80;3.30;;;;;;;19.44;71.72;101346.42;131209;1250;107418;-79
2023/09/04 09:02:04;;;;;;;5.90;2.70;;;;;;;19.56;71.70;101346.48;131243;1254;107999;-79
2023/09/04 09:05:11;;;;;;;4.20;2.70;;;;;;;19.72;69.49;101346.14;131138;1250;107632;-79
2023/09/04 09:08:17;;;;;;;6.70;3.10;;;;;;;19.79;70.02;101342.61;131097;1253;106545;-79
2023/09/04 09:11:24;;;;;;;4.00;2.50;;;;;;;19.91;71.17;101343.30;131128;1252;108570;-81
2023/09/04 09:14:30;;;;;;;3.60;2.40;;;;;;;20.07;69.78;101344.13;131075;1252;106442;-80
2023/09/04 09:17:35;;;;;;;3.60;2.30;;;;;;;20.04;70.12;101340.50;131285;1252;108999;-79
2023/09/04 09:20:43;;;;;;;8.40;3.10;;;;;;;19.98;67.20;101336.89;131178;1250;108438;-79
2023/09/04 09:23:49;;;;;;;5.20;2.40;;;;;;;19.78;67.83;101334.41;131160;1252;108375;-80
2023/09/04 09:26:56;;;;;;;4.50;2.20;;;;;;;19.54;68.25;101331.70;131209;1252;105797;-80
2023/09/04 09:30:02;;;;;;;3.00;2.10;;;;;;;19.42;66.92;101327.41;131199;1255;107787;-80
2023/09/04 09:33:12;;;;;;;3.40;2.20;;;;;;;19.43;68.44;101324.92;131295;1250;106528;-81
2023/09/04 09:36:17;;;;;;;3.60;2.00;;;;;;;19.57;69.24;101326.23;131389;1247;107665;-80
2023/09/04 09:39:24;;;;;;;4.50;2.40;;;;;;;19.73;68.74;101329.02;131714;1249;106373;-78
2023/09/04 09:42:30;;;;;;;5.80;2.50;;;;;;;19.87;67.62;101328.29;131208;1252;106694;-79
2023/09/04 09:45:37;;;;;;;4.50;2.10;;;;;;;19.93;67.71;101327.40;131177;1252;106759;-78
2023/09/04 09:48:43;;;;;;;4.20;2.10;;;;;;;20.04;67.37;101328.02;131193;1253;107032;-80
2023/09/04 09:51:54;;;;;;;5.20;2.20;;;;;;;19.95;65.89;101331.10;131205;1250;106938;-80
2023/09/04 09:54:59;;;;;;;3.20;2.30;;;;;;;19.82;63.52;101335.38;131163;1252;107764;-79
2023/09/04 09:58:07;;;;;;;2.80;2.00;;;;;;;19.88;66.31;101327.45;131330;1253;107285;-80
2023/09/04 10:01:14;;;;;;;2.80;2.20;;;;;;;20.16;66.78;101315.85;131189;1250;108422;-81
2023/09/04 10:04:21;;;;;;;2.70;1.90;;;;;;;20.46;66.63;101317.05;131227;1252;106952;-81
2023/09/04 10:07:29;;;;;;;3.30;2.10;;;;;;;20.66;66.50;101308.70;131438;1252;108509;-79
2023/09/04 10:10:41;;;;;;;4.40;2.50;;;;;;;20.86;66.51;101303.46;131290;1250;106562;-80
2023/09/04 10:13:55;;;;;;;3.50;2.20;;;;;;;20.99;66.03;101306.04;131269;1248;108442;-79
2023/09/04 10:17:03;;;;;;;5.70;2.40;;;;;;;21.04;65.93;101309.95;131183;1250;107435;-79
2023/09/04 10:20:13;;;;;;;5.10;2.20;;;;;;;20.89;62.80;101318.02;131217;1252;106706;-80
2023/09/04 10:23:24;;;;;;;3.90;2.00;;;;;;;20.58;61.62;101326.34;131271;1252;107747;-79
2023/09/04 10:26:37;;;;;;;4.60;2.20;;;;;;;20.34;62.64;101322.10;131423;1253;108680;-80
2023/09/04 10:29:51;;;;;;;2.60;2.00;;;;;;;20.43;64.12;101317.08;131274;1253;108606;-79
2023/09/04 10:32:57;;;;;;;3.10;2.00;;;;;;;20.67;64.63;101319.39;131284;1247;108657;-82
2023/09/04 10:36:04;;;;;;;3.60;2.50;;;;;;;20.82;63.92;101321.95;131374;1252;107500;-81
2023/09/04 10:39:09;;;;;;;4.10;2.40;;;;;;;20.67;62.04;101326.52;131427;1250;108457;-81
2023/09/04 10:42:16;;;;;;;5.20;2.50;;;;;;;20.36;61.44;101333.23;131293;1252;106255;-81
2023/09/04 10:45:23;;;;;;;3.80;2.40;;;;;;;20.16;59.94;101337.70;131843;1250;106861;-81
2023/09/04 10:48:48;;;;;;;3.20;2.40;;;;;;;20.15;61.12;101329.42;131694;1249;107326;-82
2023/09/04 10:51:53;;;;;;;7.00;3.00;;;;;;;20.31;60.94;101326.32;131311;1252;107620;-81
2023/09/04 10:55:13;;;;;;;3.20;2.20;;;;;;;20.45;59.13;101329.43;131284;1250;107475;-81
2023/09/04 10:58:19;;;;;;;3.40;2.20;;;;;;;20.66;58.55;101332.66;131773;1252;107433;-81
2023/09/04 11:01:37;;;;;;;6.00;2.60;;;;;;;20.72;59.44;101330.55;131292;1252;107481;-81
2023/09/04 11:04:52;;;;;;;4.90;2.40;;;;;;;20.62;59.07;101330.77;131322;1253;109321;-81
2023/09/04 11:08:27;;;;;;;6.10;2.50;;;;;;;20.55;58.96;101327.33;131584;1250;107432;-81
2023/09/04 11:11:35;;;;;;;3.50;2.30;;;;;;;20.67;59.50;101323.99;131394;1250;107232;-81
2023/09/04 11:14:48;;;;;;;2.40;2.10;;;;;;;20.78;58.73;101323.21;131413;1252;108740;-80
2023/09/04 11:17:54;;;;;;;4.70;2.40;;;;;;;20.84;57.97;101316.46;131386;1252;107806;-83
2023/09/04 11:21:00;;;;;;;4.60;2.60;;;;;;;20.89;58.87;101317.59;131366;1252;107365;-82
2023/09/04 11:24:07;;;;;;;4.00;2.50;;;;;;;20.81;57.01;101318.95;131267;1262;108449;-79
2023/09/04 11:27:13;;;;;;;4.30;2.30;;;;;;;20.68;58.29;101318.61;131274;1255;107603;-80
2023/09/04 11:30:18;;;;;;;2.50;1.90;;;;;;;20.67;58.32;101318.86;131282;1250;105657;-80
2023/09/04 11:33:24;;;;;;;3.80;2.30;;;;;;;20.91;59.63;101312.69;131234;1254;107495;-79
2023/09/04 11:36:29;;;;;;;3.30;2.10;;;;;;;21.04;58.97;101315.76;131381;1252;107568;-79
2023/09/04 11:39:34;;;;;;;5.90;2.50;;;;;;;20.99;57.15;101320.64;131332;1250;107242;-80
2023/09/04 11:42:40;;;;;;;3.20;2.10;;;;;;;20.87;56.92;101314.48;131227;1254;107525;-80
2023/09/04 11:45:46;;;;;;;3.90;2.20;;;;;;;20.90;58.24;101317.72;131617;1250;107340;-79
2023/09/04 11:48:51;;;;;;;4.70;2.60;;;;;;;20.99;57.12;101316.47;131765;1253;106465;-81
2023/09/04 11:51:57;;;;;;;3.80;2.60;;;;;;;21.10;57.11;101307.73;131542;1252;107349;-79
2023/09/04 11:55:06;;;;;;;4.20;2.40;;;;;;;21.25;55.54;101307.10;131461;1254;107428;-80
2023/09/04 11:58:12;;;;;;;3.90;2.40;;;;;;;21.29;55.75;101297.98;131262;1254;105892;-80
2023/09/04 12:01:18;;;;;;;5.00;2.30;;;;;;;21.20;54.89;101302.02;131244;1250;107416;-80
2023/09/04 12:04:23;;;;;;;3.60;2.20;;;;;;;20.98;55.48;101304.77;131252;1256;107252;-80
2023/09/04 12:07:29;;;;;;;3.90;2.10;;;;;;;20.94;57.22;101299.91;131296;1249;107503;-80
2023/09/04 12:10:37;;;;;;;4.50;2.10;;;;;;;21.08;56.48;101298.34;131213;1254;108697;-80
2023/09/04 12:13:42;;;;;;;3.90;2.10;;;;;;;21.19;55.39;101305.13;131340;1255;107548;-79
2023/09/04 12:16:48;;;;;;;5.90;2.40;;;;;;;21.34;55.15;101304.66;131204;1253;107663;-80
2023/09/04 12:19:53;;;;;;;3.20;2.10;;;;;;;21.38;54.30;101303.15;131545;1265;107221;-80
2023/09/04 12:23:00;;;;;;;3.20;1.90;;;;;;;21.37;53.84;101296.95;131273;1253;107505;-78
2023/09/04 12:26:05;;;;;;;3.70;1.90;;;;;;;21.22;53.31;101291.17;131306;1251;108280;-79
2023/09/04 12:29:11;;;;;;;2.60;1.80;;;;;;;21.05;54.36;101288.13;131504;1250;107461;-79
2023/09/04 12:32:17;;;;;;;3.10;2.00;;;;;;;21.04;54.33;101277.56;131276;1251;107405;-79
2023/09/04 12:35:22;;;;;;;5.90;2.20;;;;;;;21.07;54.10;101275.83;131193;1252;107450;-79
2023/09/04 12:38:28;;;;;;;3.70;1.90;;;;;;;21.23;55.04;101270.59;131109;1255;106540;-79
2023/09/04 12:41:33;;;;;;;4.90;2.30;;;;;;;21.38;54.46;101268.60;131419;1247;108082;-80
2023/09/04 12:44:39;;;;;;;4.30;2.20;;;;;;;21.36;53.66;101269.89;131207;1254;108001;-76
2023/09/04 12:47:44;;;;;;;3.60;2.20;;;;;;;21.28;53.03;101266.49;131438;1255;105577;-79
2023/09/04 12:50:50;;;;;;;4.30;2.30;;;;;;;21.31;54.59;101263.41;131660;1254;107616;-79
2023/09/04 12:53:56;;;;;;;3.60;2.20;;;;;;;21.34;53.37;101263.73;132089;1254;107226;-81
2023/09/04 12:57:03;;;;;;;3.50;2.40;;;;;;;21.30;53.98;101269.34;131331;1252;131792;-80
2023/09/04 13:00:11;;;;;;;3.10;2.00;;;;;;;21.31;53.69;101272.73;132361;1250;107192;-80
2023/09/04 13:03:16;;;;;;;5.20;2.50;;;;;;;21.30;53.57;101273.86;131501;1252;107648;-80
2023/09/04 13:06:22;;;;;;;5.20;2.00;;;;;;;21.33;54.02;101275.99;132392;1254;107462;-82
2023/09/04 13:09:27;;;;;;;3.80;2.20;;;;;;;21.35;51.46;101279.90;131477;1253;108633;-81
2023/09/04 13:12:33;;;;;;;4.50;2.20;;;;;;;21.37;53.57;101275.41;131416;1252;107506;-84
2023/09/04 13:15:38;;;;;;;3.00;1.90;;;;;;;21.47;52.86;101272.23;131371;1253;108731;-81
2023/09/04 13:18:44;;;;;;;3.30;2.20;;;;;;;21.47;53.07;101270.36;131480;1250;107517;-82
2023/09/04 13:21:50;;;;;;;5.80;2.10;;;;;;;21.49;52.93;101273.38;131836;1247;107239;-83
2023/09/04 13:24:56;;;;;;;2.80;2.10;;;;;;;21.40;52.29;101275.83;131575;1253;107469;-84
2023/09/04 13:28:02;;;;;;;3.60;2.50;;;;;;;21.42;53.34;101271.59;131253;1253;109623;-82
2023/09/04 13:31:07;;;;;;;2.80;2.00;;;;;;;21.51;53.70;101270.71;131438;1251;105550;-80
2023/09/04 13:34:13;;;;;;;4.60;2.30;;;;;;;21.62;52.89;101278.59;132007;1252;107607;-82
2023/09/04 13:37:22;;;;;;;4.50;2.20;;;;;;;21.60;50.46;101277.20;131698;1251;107558;-81
2023/09/04 13:40:27;;;;;;;4.10;2.30;;;;;;;21.55;51.96;101277.45;131519;1250;107491;-82
2023/09/04 13:43:33;;;;;;;4.20;2.30;;;;;;;21.59;51.04;101277.19;131434;1252;108646;-82
2023/09/04 13:46:38;;;;;;;3.90;2.20;;;;;;;21.53;50.50;101280.08;131442;1252;107005;-82
2023/09/04 13:49:45;;;;;;;3.90;2.20;;;;;;;21.52;51.11;101278.37;131595;1250;107491;-83
2023/09/04 13:52:50;;;;;;;4.70;2.40;;;;;;;21.55;50.23;101272.27;131612;1247;108698;-82
2023/09/04 13:55:56;;;;;;;3.60;2.40;;;;;;;21.49;50.24;101262.80;131543;1246;108641;-82
2023/09/04 13:59:01;;;;;;;3.30;2.40;;;;;;;21.49;50.48;101256.04;131603;1247;108145;-79
2023/09/04 14:02:07;;;;;;;3.20;2.30;;;;;;;21.50;50.38;101263.94;131585;1251;107430;-78
2023/09/04 14:05:15;;;;;;;4.00;2.80;;;;;;;21.51;50.51;101264.57;131763;1252;107502;-80
2023/09/04 14:08:21;;;;;;;3.70;2.40;;;;;;;21.57;50.10;101264.14;131575;1254;107467;-79